Latest Coastal Weather Observations for Milingimbi

IDD60701

Issued at 9:21 am CST Friday 19 January 2018 (issued every 10 minutes, with the page automatically refreshed every 10 minutes)

About coastal observations | Map of coastal stations | Coastal observations for NT | Marine services | Other Formats
Station Details ID: 014404 Name: MILINGIMBI AIRPORT Lat: -12.09 Lon: 134.89 Height: 15.0 m
Data from the previous 72 hours. | See also: Recent months at Milingimbi
Date/Time
CST
Temp
°C
Wind Pressure Rain since
9am
mm
Weather Cloud Vis
km
Sea
Height
m
Swell
Dir  Spd
kts
Gust
kts
hPa Trend Height
m
Period
s
Dir
19/09:00am 27.0 SSW 5 7 1006.8 - 25.0 - - - - - - -
19/08:30am 26.1 SSW 5 7 1006.6 - 25.0 - - - - - - -
19/08:00am 25.7 S 5 6 1006.1 - 25.0 - - - - - - -
19/07:30am 25.4 S 4 5 1005.7 - 25.0 - - - - - - -
19/07:00am 25.3 SSE 3 4 1005.6 - 25.0 - - - - - - -
19/06:30am 25.2 E 4 5 1005.3 - 24.8 - - - - - - -
19/06:00am 25.1 NE 1 3 1005.1 - 24.4 - - - - - - -
19/05:30am 25.1 ENE 3 5 1005.0 - 23.4 - - - - - - -
19/05:00am 24.8 NE 3 5 1005.1 - 21.0 - - - - - - -
19/04:30am 24.7 CALM 0 0 1005.3 - 19.2 - - - - - - -
19/04:00am 24.6 NNW 4 5 1005.2 - 17.0 - - - - - - -
19/03:30am 24.5 NNW 4 10 1005.8 - 12.2 - - - - - - -
19/03:00am 25.4 S 4 7 1005.1 - 4.0 - - - - - - -
19/02:30am 25.6 S 4 6 1005.5 - 4.0 - - - - - - -
19/02:00am 25.4 SSE 4 6 1005.8 - 4.0 - - - - - - -
19/01:30am 25.5 SSE 4 6 1005.9 - 4.0 - - - - - - -
19/01:00am 25.6 SSE 5 7 1006.0 - 4.0 - - - - - - -
19/12:30am 25.6 S 5 6 1006.4 - 4.0 - - - - - - -
19/12:00am 25.6 SSE 5 7 1006.7 - 4.0 - - - - - - -
 
Date/Time
CST
Temp
°C
Wind Pressure Rain since
9am
mm
Weather Cloud Vis
km
Sea
Height
m
Swell
Dir  Spd
kts
Gust
kts
hPa Trend Height
m
Period
s
Dir
18/11:30pm 25.7 SSE 4 6 1007.2 - 4.0 - - - - - - -
18/11:00pm 25.9 SSE 4 5 1007.4 - 4.0 - - - - - - -
18/10:30pm 25.9 SE 4 5 1007.2 - 4.0 - - - - - - -
18/10:00pm 25.9 S 4 6 1007.1 - 4.0 - - - - - - -
18/09:30pm 26.0 S 6 8 1006.8 - 4.0 - - - - - - -
18/09:00pm 26.1 S 4 6 1006.8 - 4.0 - - - - - - -
18/08:30pm 26.4 SSW 4 5 1006.8 - 4.0 - - - - - - -
18/08:00pm 26.4 SSE 5 6 1006.6 - 4.0 - - - - - - -
18/07:30pm 26.3 WSW 1 4 1006.6 - 3.8 - - - - - - -
18/07:00pm 26.6 NE 2 3 1006.2 - 3.8 - - - - - - -
18/06:30pm 26.6 NE 3 5 1005.8 - 3.8 - - - - - - -
18/06:00pm 26.6 NE 3 4 1005.7 - 3.8 - - - - - - -
18/05:30pm 26.5 NE 3 6 1005.4 - 3.8 - - - - - - -
18/05:00pm 26.2 NNE 4 7 1004.9 - 3.8 - - - - - - -
18/04:30pm 26.1 NNE 5 9 1004.8 - 3.4 - - - - - - -
18/04:00pm 26.5 NE 3 5 1004.7 - 3.2 - - - - - - -
18/03:30pm 25.8 NE 6 9 1005.0 - 3.0 - - - - - - -
18/03:00pm 26.1 N 7 13 1005.4 - 2.8 - - - - - - -
18/02:30pm 26.9 NNE 4 6 1005.2 - 2.2 - - - - - - -
18/02:00pm 27.5 NNE 5 8 1005.4 - 0.4 - - - - - - -
18/01:30pm 29.5 ENE 5 9 1005.8 - 0.0 - - - - - - -
18/01:00pm 31.2 E 6 11 1005.9 - 0.0 - - - - - - -
18/12:30pm 30.6 E 6 10 1006.2 - 0.0 - - - - - - -
18/12:00pm 30.4 E 6 8 1006.5 - 0.0 - - - - - - -
18/11:30am 29.4 E 5 9 1006.6 - 0.0 - - - - - - -
18/11:00am 29.0 ESE 7 10 1006.6 - 0.0 - - - - - - -
18/10:30am 28.6 SE 6 11 1006.9 - 0.0 - - - - - - -
18/10:00am 28.6 SE 7 10 1007.1 - 0.0 - - - - - - -
18/09:30am 27.7 ESE 5 7 1007.3 - 0.0 - - - - - - -
18/09:00am 26.9 SE 4 6 1007.1 - 40.0 - - - - - - -
18/08:30am 25.7 SE 6 7 1006.8 - 40.0 - - - - - - -
18/08:00am 25.2 SSE 5 7 1006.8 - 39.8 - - - - - - -
18/07:30am 24.8 SSE 3 4 1006.8 - 39.8 - - - - - - -
18/07:00am 24.7 SSE 4 6 1006.9 - 39.6 - - - - - - -
18/06:30am 24.7 S 3 5 1006.8 - 39.2 - - - - - - -
18/06:00am 24.5 S 6 7 1006.3 - 39.2 - - - - - - -
18/05:30am 24.5 SE 4 6 1006.4 - 38.8 - - - - - - -
18/05:00am 24.3 SSE 4 6 1005.7 - 38.0 - - - - - - -
18/04:30am 24.3 SSW 1 4 1005.8 - 37.2 - - - - - - -
18/04:00am 24.2 SSW 2 3 1006.0 - 35.0 - - - - - - -
18/03:30am 24.2 S 5 6 1005.8 - 33.2 - - - - - - -
18/03:00am 24.1 ESE 2 5 1005.8 - 32.2 - - - - - - -
18/02:30am 24.3 NNW 7 12 1006.5 - 26.6 - - - - - - -
18/02:00am 25.1 SW 4 6 1006.1 - 21.4 - - - - - - -
18/01:30am 25.2 S 1 3 1005.9 - 21.4 - - - - - - -
18/01:00am 25.1 E 3 5 1006.1 - 21.2 - - - - - - -
18/12:30am 24.7 NNW 3 5 1006.8 - 21.0 - - - - - - -
18/12:00am 24.9 N 12 17 1007.2 - 16.4 - - - - - - -
 
Date/Time
CST
Temp
°C
Wind Pressure Rain since
9am
mm
Weather Cloud Vis
km
Sea
Height
m
Swell
Dir  Spd
kts
Gust
kts
hPa Trend Height
m
Period
s
Dir
17/11:30pm 26.8 SW 3 4 1006.9 - 0.0 - - - - - - -
17/11:00pm 26.9 SSW 3 4 1006.9 - 0.0 - - - - - - -
17/10:30pm 26.7 S 3 4 1006.9 - 0.0 - - - - - - -
17/10:00pm 26.6 SSE 4 6 1006.8 - 0.0 - - - - - - -
17/09:30pm 26.2 E 4 5 1006.3 - 0.0 - - - - - - -
17/09:00pm 26.9 NNE 7 12 1006.2 - 0.0 - - - - - - -
17/08:30pm 27.3 SE 6 8 1005.8 - 0.0 - - - - - - -
17/08:00pm 27.7 SE 9 11 1005.7 - 0.0 - - - - - - -
17/07:30pm 28.8 SSE 6 9 1005.2 - 0.0 - - - - - - -
17/07:00pm 29.7 ESE 3 4 1005.0 - 0.0 - - - - - - -
17/06:30pm 30.5 NE 6 11 1004.7 - 0.0 - - - - - - -
17/06:00pm 31.3 NNE 5 7 1004.5 - 0.0 - - - - - - -
17/05:30pm 31.4 NNE 6 11 1004.4 - 0.0 - - - - - - -
17/05:00pm 32.2 N 5 9 1003.8 - 0.0 - - - - - - -
17/04:30pm 32.5 N 7 12 1003.6 - 0.0 - - - - - - -
17/04:00pm 31.9 N 6 11 1003.7 - 0.0 - - - - - - -
17/03:30pm 32.6 N 7 11 1003.7 - 0.0 - - - - - - -
17/03:00pm 33.2 N 6 11 1003.7 - 0.0 - - - - - - -
17/02:30pm 33.3 N 5 10 1004.0 - 0.0 - - - - - - -
17/02:00pm 32.7 NNE 6 9 1004.3 - 0.0 - - - - - - -
17/01:30pm 32.2 N 6 9 1004.7 - 0.0 - - - - - - -
17/01:00pm 32.2 NNE 5 8 1004.7 - 0.0 - - - - - - -
17/12:30pm 32.0 NNE 5 8 1005.0 - 0.0 - - - - - - -
17/12:00pm 33.2 N 5 11 1005.0 - 0.0 - - - - - - -
17/11:30am 32.5 N 5 8 1005.1 - 0.0 - - - - - - -
17/11:00am 32.1 N 5 9 1005.0 - 0.0 - - - - - - -
17/10:30am 32.2 N 6 11 1005.1 - 0.0 - - - - - - -
17/10:00am 31.6 NNW 5 8 1005.3 - 0.0 - - - - - - -
17/09:30am 30.9 NNW 5 7 1005.5 - 0.0 - - - - - - -
17/09:00am 29.0 WNW 5 6 1005.5 - 0.0 - - - - - - -
17/08:30am 28.4 WNW 5 9 1005.8 - 0.0 - - - - - - -
17/08:00am 29.1 S 4 5 1005.6 - 0.0 - - - - - - -
17/07:30am 27.9 SSW 3 5 1005.6 - 0.0 - - - - - - -
17/07:00am 27.1 S 4 5 1005.3 - 0.0 - - - - - - -
17/06:30am 26.7 WSW 3 4 1004.8 - 0.0 - - - - - - -
17/06:00am 26.7 CALM 0 1 1004.4 - 0.0 - - - - - - -
17/05:30am 26.9 SW 4 5 1004.4 - 0.0 - - - - - - -
17/05:00am 26.8 CALM 0 0 1004.2 - 0.0 - - - - - - -
17/04:30am 27.1 CALM 0 3 1004.3 - 0.0 - - - - - - -
17/04:00am 27.4 CALM 0 0 1004.3 - 0.0 - - - - - - -
17/03:30am 27.7 CALM 0 0 1004.8 - 0.0 - - - - - - -
17/03:00am 27.9 CALM 0 0 1005.0 - 0.0 - - - - - - -
17/02:30am 28.3 SW 3 5 1005.5 - 0.0 - - - - - - -
17/02:00am 28.8 WNW 1 3 1005.5 - 0.0 - - - - - - -
17/01:30am 29.0 NNW 4 6 1005.4 - 0.0 - - - - - - -
17/01:00am 28.8 NW 3 5 1005.6 - 0.0 - - - - - - -
17/12:30am 28.8 NW 4 6 1005.7 - 0.0 - - - - - - -
17/12:00am 28.9 NW 4 6 1005.8 - 0.0 - - - - - - -
 
Date/Time
CST
Temp
°C
Wind Pressure Rain since
9am
mm
Weather Cloud Vis
km
Sea
Height
m
Swell
Dir  Spd
kts
Gust
kts
hPa Trend Height
m
Period
s
Dir
16/11:30pm 28.9 WNW 4 6 1005.8 - 0.0 - - - - - - -
16/11:00pm 28.8 NNW 3 4 1006.2 - 0.0 - - - - - - -
16/10:30pm 29.4 NW 2 5 1006.1 - 0.0 - - - - - - -
16/10:00pm 29.1 NNW 1 3 1005.9 - 0.0 - - - - - - -
16/09:30pm 29.4 NNW 3 4 1005.7 - 0.0 - - - - - - -
16/09:00pm 29.6 NNW 3 5 1005.4 - 0.0 - - - - - - -
16/08:30pm 29.4 N 2 5 1005.1 - 0.0 - - - - - - -
16/08:00pm 29.5 N 2 3 1004.5 - 0.0 - - - - - - -
16/07:30pm 29.8 NW 4 7 1003.9 - 0.0 - - - - - - -
16/07:00pm 30.2 NNW 4 6 1003.4 - 0.0 - - - - - - -
16/06:30pm 30.8 NNW 5 7 1003.5 - 0.0 - - - - - - -
16/06:00pm 31.2 N 6 9 1003.1 - 0.0 - - - - - - -
16/05:30pm 31.8 N 4 9 1002.8 - 0.0 - - - - - - -
16/05:00pm 31.3 NNW 7 11 1002.6 - 0.0 - - - - - - -
16/04:30pm 31.7 NNW 6 11 1002.5 - 0.0 - - - - - - -
16/04:00pm 31.9 N 7 11 1002.6 - 0.0 - - - - - - -
16/03:30pm 33.4 NNW 6 10 1002.7 - 0.0 - - - - - - -
16/03:00pm 33.2 N 7 13 1003.0 - 0.0 - - - - - - -
16/02:30pm 33.8 NNW 8 14 1003.5 - 0.0 - - - - - - -
16/02:00pm 33.4 N 8 13 1004.1 - 0.0 - - - - - - -
16/01:30pm 33.5 N 7 12 1004.5 - 0.0 - - - - - - -
16/01:00pm 33.4 N 7 11 1004.9 - 0.0 - - - - - - -
16/12:30pm 33.7 N 7 11 1005.2 - 0.0 - - - - - - -
16/12:00pm 33.6 N 5 8 1005.5 - 0.0 - - - - - - -
16/11:30am 33.0 N 7 11 1005.7 - 0.0 - - - - - - -
16/11:00am 33.2 N 6 9 1005.8 - 0.0 - - - - - - -
16/10:30am 32.3 WNW 6 8 1006.1 - 0.0 - - - - - - -
16/10:00am 32.0 WNW 6 11 1006.1 - 0.0 - - - - - - -
16/09:30am 31.2 NW 7 11 1005.9 - 0.0 - - - - - - -

Other Formats:

Comma delimited format used in spreadsheet applications
http://www.bom.gov.au/fwo/IDD60701/IDD60701.94140.axf

JavaScript Object Notation format (JSON) in row-major order
http://www.bom.gov.au/fwo/IDD60701/IDD60701.94140.json